Terminal Aerodrome Forecast
Issued by NWS

Home | Current Version | Previous Version | Text Only | Print | Product List | Glossary On
Versions: 1 2 3 4 5 6 7 8 9 10 11 12 13 14
000
FTUS43 KICT 030948 AAA
TAFCNU
TAF AMD
KCNU 030948Z 0310/0406 VRB03KT 1SM BR BKN002
      TEMPO 0310/0314 1/4SM FG OVC002
     FM031430 VRB05KT P6SM SKC
     FM032100 27007KT P6SM SKC=

USA.gov is the U.S. government's official web portal to all federal, state and local government web resources and services.